Terminal Aerodrome Forecast
Issued by NWS

Home | Current Version | Previous Version | Text Only | Print | Product List | Glossary On
Versions: 1 2 3 4 5 6 7 8 9 10 11 12 13 14 15 16 17
035
FTUS46 KSGX 201148
TAFCRQ
TAF
KCRQ 201148Z 2012/2112 21007KT P6SM VCSH SCT025 BKN050 BKN200
     FM201400 18010G20KT 6SM -SHRA BR SCT010 OVC025
     FM201800 20020G30KT 4SM SHRA BR SCT010 OVC020
      TEMPO 2021/2024 22025G45KT 1/2SM +TSRA FG OVC008CB
     FM210100 23015G35KT 3SM SHRA BR BKN015
     FM210400 25015G30KT 6SM -SHRA BR BKN025
     FM210800 27010G20KT P6SM VCSH SCT025 OVC150=

USA.gov is the U.S. government's official web portal to all federal, state and local government web resources and services.